Flight Track Log - Related Links

Times and Time Zones

All times are in EDT time to prevent confusion due to time zone crossing. See the DAL2452 flight status page for this flight to view local times or setup timezone preferences in your user account.


Time Position Orientation Groundspeed Altitude Reporting Facility
EDT Latitude Longitude Course Direction KTS MPH feet Rate Location/Type
Mon 09:50:52 AM 32.7500 -117.2167 23° Northeast 193 222 1,300  Level Southern California TRACON
Mon 09:51:31 AM 32.7519 -117.2683 273° West 207 238 2,100 1,782 Climbing Los Angeles Center
Mon 09:52:33 AM 32.7203 -117.3281 238° Southwest 249 287 4,300 2,390 Climbing Los Angeles Center
Mon 09:53:00 AM 32.6078 -117.0299 101° East  Level FlightAware Approximate
Mon 09:53:34 AM 32.6658 -117.2811 144° Southeast 247 284 7,000  Level Los Angeles Center
Mon 09:54:00 AM 32.6077 -116.8824 84° East  Level FlightAware Approximate
Mon 09:54:35 AM 32.6447 -117.2011 107° East 263 303 8,900  Level Los Angeles Center
Mon 09:55:00 AM 32.6427 -116.7563 19° North  Level FlightAware Approximate
Mon 09:55:37 AM 32.6303 -117.1103 101° East 278 320 10,700  Level Los Angeles Center
Mon 09:56:00 AM 32.7612 -116.7111 23° Northeast  Level FlightAware Approximate
Mon 09:56:38 AM 32.6131 -116.9989 100° East 339 390 11,600  Level Los Angeles Center
Mon 09:57:40 AM 32.6197 -116.8722 86° East 376 433 13,300 1,902 Climbing Los Angeles Center
Mon 09:58:41 AM 32.6964 -116.7467 54° Northeast 423 487 15,500 2,049 Climbing Los Angeles Center
Mon 09:59:43 AM 32.8144 -116.7042 17° North 441 507 17,500 1,854 Climbing Los Angeles Center
Mon 10:00:44 AM 32.9336 -116.6608 17° North 441 507 19,300 1,610 Climbing Los Angeles Center
Mon 10:01:46 AM 33.0542 -116.6044 21° North 451 519 20,800 1,268 Climbing Los Angeles Center
Mon 10:02:47 AM 33.1414 -116.5353 34° Northeast 466 536 21,900 1,415 Climbing Los Angeles Center
Mon 10:03:49 AM 33.2753 -116.4319 33° Northeast 472 543 23,700 1,452 Climbing Los Angeles Center
Mon 10:04:51 AM 33.3878 -116.3456 33° Northeast 477 549 24,900 1,073 Climbing Los Angeles Center
Mon 10:05:52 AM 33.5031 -116.2569 33° Northeast 485 558 25,900 1,024 Climbing Los Angeles Center
Mon 10:06:54 AM 33.6153 -116.1597 36° Northeast 496 571 27,000 1,220 Climbing Los Angeles Center
Mon 10:07:55 AM 33.6750 -116.0136 64° Northeast 487 560 28,400 1,171 Climbing Los Angeles Center
Mon 10:08:57 AM 33.7247 -115.8622 68° East 486 559 29,400 1,113 Climbing Los Angeles Center
Mon 10:09:59 AM 33.7836 -115.6797 69° East 487 560 30,700 1,258 Climbing Los Angeles Center
Mon 10:11:01 AM 33.8325 -115.5286 69° East 487 560 32,000 1,073 Climbing Los Angeles Center
Mon 10:12:02 AM 33.8800 -115.3811 69° East 479 551 32,900 439 Climbing Los Angeles Center
Mon 10:13:04 AM 33.9269 -115.2317 69° East 477 549 32,900 484 Level Los Angeles Center
Mon 10:14:06 AM 33.9750 -115.0831 69° East 477 549 33,900 968 Climbing Los Angeles Center
Mon 10:15:08 AM 34.0217 -114.9364 69° East 473 544 34,900 537 Climbing Los Angeles Center
Mon 10:16:09 AM 34.0692 -114.7894 69° East 470 541 35,000 49 Climbing Los Angeles Center
Mon 10:17:11 AM 34.1225 -114.6111 70° East 473 544 35,000  Level Los Angeles Center
Mon 10:18:13 AM 34.1644 -114.4619 71° East 471 542 35,000 -48 Level Los Angeles Center
Mon 10:19:15 AM 34.2053 -114.3136 72° East 467 537 34,900  Descending Los Angeles Center
Mon 10:20:17 AM 34.2472 -114.1661 71° East 466 536 35,000  Climbing Los Angeles Center
Mon 10:21:18 AM 34.2883 -114.0194 71° East 462 532 34,900  Descending Los Angeles Center
Mon 10:22:20 AM 34.3269 -113.8717 72° East 463 533 35,000 48 Climbing Los Angeles Center
Mon 10:23:22 AM 34.3725 -113.7108 71° East 464 534 35,000  Level Los Angeles Center
Mon 10:24:24 AM 34.4133 -113.5631 71° East 467 537 35,000  Level Los Angeles Center
Mon 10:25:26 AM 34.4533 -113.4175 72° East 463 533 35,000  Level Los Angeles Center
Mon 10:26:28 AM 34.4925 -113.2686 72° East 466 536 35,000  Level Los Angeles Center
Mon 10:27:55 AM 34.5489 -113.0308 74° East 464 534 35,000  Level Albuquerque Center
Mon 10:28:57 AM 34.5847 -112.8817 74° East 465 535 35,000  Level Albuquerque Center
Mon 10:29:59 AM 34.6203 -112.7317 74° East 467 537 35,000  Level Albuquerque Center
Mon 10:31:01 AM 34.6564 -112.5817 74° East 469 540 35,000  Level Albuquerque Center
Mon 10:32:02 AM 34.6975 -112.3994 75° East 471 542 35,000  Level Albuquerque Center
Mon 10:33:04 AM 34.7292 -112.2644 74° East 469 540 35,000  Level Albuquerque Center
Mon 10:34:06 AM 34.7683 -112.0986 74° East 468 539 35,000  Level Albuquerque Center
Mon 10:35:07 AM 34.8031 -111.9467 74° East 470 541 35,000  Level Albuquerque Center
Mon 10:36:09 AM 34.8369 -111.7961 75° East 468 539 35,000  Level Albuquerque Center
Mon 10:37:11 AM 34.8769 -111.6219 74° East 468 539 35,000  Level Albuquerque Center
Mon 10:38:13 AM 34.9119 -111.4689 74° East 468 539 35,000  Level Albuquerque Center
Mon 10:39:15 AM 34.9456 -111.3153 75° East 469 540 35,000  Level Albuquerque Center
Mon 10:40:16 AM 34.9794 -111.1603 75° East 472 543 35,000  Level Albuquerque Center
Mon 10:41:18 AM 35.0147 -111.0069 74° East 471 542 35,000  Level Albuquerque Center
Mon 10:42:20 AM 35.0486 -110.8533 75° East 470 541 35,000  Level Albuquerque Center
Mon 10:43:22 AM 35.0861 -110.6786 75° East 470 541 35,000  Level Albuquerque Center
Mon 10:44:24 AM 35.1247 -110.5069 75° East 470 541 35,000  Level Albuquerque Center
Mon 10:45:26 AM 35.1572 -110.3597 75° East 469 540 35,000  Level Albuquerque Center
Mon 10:46:28 AM 35.1956 -110.1894 75° East 468 539 35,000  Level Albuquerque Center
Mon 10:47:30 AM 35.2269 -110.0425 75° East 467 537 35,000  Level Albuquerque Center
Mon 10:48:32 AM 35.2642 -109.8714 75° East 467 537 35,000  Level Albuquerque Center
Mon 10:49:34 AM 35.2967 -109.7250 75° East 466 536 35,000  Level Albuquerque Center
Mon 10:50:36 AM 35.3281 -109.5789 75° East 466 536 35,000  Level Albuquerque Center
Mon 10:51:38 AM 35.3639 -109.4053 76° East 469 540 35,000  Level Albuquerque Center
Mon 10:52:40 AM 35.3953 -109.2583 75° East 469 540 35,000  Level Albuquerque Center
Mon 10:53:42 AM 35.4308 -109.0883 76° East 466 536 35,000  Level Albuquerque Center
Mon 10:54:44 AM 35.4617 -108.9417 75° East 466 536 35,000  Level Albuquerque Center
Mon 10:55:46 AM 35.5025 -108.7719 73° East 467 537 35,000  Level Albuquerque Center
Mon 10:56:48 AM 35.5433 -108.6283 71° East 468 539 35,000  Level Albuquerque Center
Mon 10:57:50 AM 35.5886 -108.4600 72° East 468 539 35,000  Level Albuquerque Center
Mon 10:58:52 AM 35.6281 -108.3161 71° East 467 537 35,000  Level Albuquerque Center
Mon 10:59:54 AM 35.6728 -108.1464 72° East 469 540 35,000  Level Albuquerque Center
Mon 11:00:56 AM 35.7117 -108.0011 72° East 469 540 35,000  Level Albuquerque Center
Mon 11:02:00 AM 35.7490 -107.8434 74° East  Level FlightAware Approximate
Mon 11:03:00 AM 35.7944 -107.6856 74° East 470 541 35,000  Level Albuquerque Center
Mon 11:04:02 AM 35.8392 -107.5144 72° East 470 541 35,000  Level Albuquerque Center
Mon 11:05:04 AM 35.8786 -107.3664 72° East 474 545 35,000  Level Albuquerque Center
Mon 11:06:06 AM 35.9219 -107.1928 73° East 475 547 35,000  Level Albuquerque Center
Mon 11:07:08 AM 35.9617 -107.0439 72° East 476 548 35,000  Level Albuquerque Center
Mon 11:08:10 AM 36.0053 -106.8697 73° East 476 548 35,000  Level Albuquerque Center
Mon 11:09:12 AM 36.0433 -106.7222 72° East 472 543 35,000  Level Albuquerque Center
Mon 11:10:15 AM 36.0875 -106.5489 72° East 474 545 35,000 -48 Level Albuquerque Center
Mon 11:11:17 AM 36.1228 -106.4006 74° East 477 549 34,900  Descending Albuquerque Center
Mon 11:12:19 AM 36.1628 -106.2431 72° East 477 549 35,000  Climbing Albuquerque Center
Mon 11:13:21 AM 36.2019 -106.0839 73° East 479 551 34,900 -48 Descending Albuquerque Center
Mon 11:14:23 AM 36.2403 -105.9258 73° East 478 550 34,900  Level Albuquerque Center
Mon 11:15:25 AM 36.2853 -105.7369 73° East 476 548 34,900 48 Level Albuquerque Center
Mon 11:16:27 AM 36.3231 -105.5811 73° East 472 543 35,000 48 Climbing Albuquerque Center
Mon 11:17:29 AM 36.3608 -105.4267 73° East 468 539 35,000  Level Albuquerque Center
Mon 11:18:31 AM 36.3975 -105.2697 74° East 468 539 35,000  Level Albuquerque Center
Mon 11:19:33 AM 36.4356 -105.1150 73° East 464 534 35,000  Level Albuquerque Center
Mon 11:20:35 AM 36.4708 -104.9578 74° East 466 536 35,000  Level Albuquerque Center
Mon 11:21:37 AM 36.5036 -104.7997 75° East 467 537 35,000  Level Albuquerque Center
Mon 11:22:39 AM 36.5333 -104.6092 79° East 475 547 35,000  Level Albuquerque Center
Mon 11:23:41 AM 36.5583 -104.4472 79° East 474 545 35,000  Level Albuquerque Center
Mon 11:24:43 AM 36.5836 -104.2842 79° East 474 545 35,000  Level Albuquerque Center
Mon 11:25:45 AM 36.6086 -104.1206 79° East 475 547 35,000  Level Albuquerque Center
Mon 11:26:47 AM 36.6333 -103.9581 79° East 473 544 35,000  Level Albuquerque Center
Mon 11:27:49 AM 36.6583 -103.7950 79° East 476 548 35,000  Level Albuquerque Center
Mon 11:28:51 AM 36.6828 -103.6275 80° East 474 545 35,000  Level Albuquerque Center
Mon 11:29:54 AM 36.7094 -103.4469 80° East 475 547 35,000  Level Albuquerque Center
Mon 11:30:56 AM 36.7314 -103.2944 80° East 471 542 35,000  Level Albuquerque Center
Mon 11:31:58 AM 36.7569 -103.1164 80° East 469 540 35,000  Level Albuquerque Center
Mon 11:33:00 AM 36.7789 -102.9633 80° East 469 540 35,000  Level Albuquerque Center
Mon 11:34:02 AM 36.8047 -102.7842 80° East 470 541 35,000  Level Albuquerque Center
Mon 11:35:04 AM 36.8261 -102.6297 80° East 473 544 35,000  Level Albuquerque Center
Mon 11:36:06 AM 36.8481 -102.4692 80° East 470 541 35,000  Level Albuquerque Center
Mon 11:37:08 AM 36.8697 -102.3069 80° East 473 544 35,000  Level Albuquerque Center
Mon 11:38:10 AM 36.8931 -102.1389 80° East 473 544 35,000  Level Albuquerque Center
Mon 11:39:12 AM 36.9172 -101.9572 81° East 476 548 35,000  Level Albuquerque Center
Mon 11:40:14 AM 36.9383 -101.8011 80° East 477 549 35,000  Level Albuquerque Center
Mon 11:41:16 AM 36.9625 -101.6197 80° East 476 548 35,000  Level Albuquerque Center
Mon 11:42:18 AM 36.9811 -101.4642 81° East 475 547 35,000  Level Albuquerque Center
Mon 11:43:30 AM 37.0081 -101.2550 81° East 477 549 35,000  Level Kansas City Center
Mon 11:44:33 AM 37.0278 -101.0972 81° East 480 552 35,000  Level Kansas City Center
Mon 11:45:37 AM 37.0539 -100.9164 80° East 478 550 35,000  Level Kansas City Center
Mon 11:46:38 AM 37.0903 -100.7639 73° East 480 552 35,000  Level Kansas City Center
Mon 11:47:39 AM 37.1297 -100.5847 75° East 481 554 35,000  Level Kansas City Center
Mon 11:48:42 AM 37.1639 -100.4308 74° East 482 555 35,000  Level Kansas City Center
Mon 11:49:43 AM 37.2342 -100.2711 61° Northeast 474 545 35,000  Level Kansas City Center
Mon 11:50:47 AM 37.3072 -100.1436 54° Northeast 472 543 35,000  Level Kansas City Center
Mon 11:51:47 AM 37.3914 -99.9964 54° Northeast 468 539 35,000  Level Kansas City Center
Mon 11:52:51 AM 37.4661 -99.8714 53° Northeast 468 539 35,000  Level Kansas City Center
Mon 11:53:51 AM 37.5528 -99.7256 53° Northeast 468 539 35,000  Level Kansas City Center
Mon 11:54:55 AM 37.6275 -99.6031 52° Northeast 465 535 35,000  Level Kansas City Center
Mon 11:55:55 AM 37.6950 -99.4708 57° Northeast 467 537 35,000 145 Level Kansas City Center
Mon 11:56:59 AM 37.7303 -99.2756 77° East 475 547 35,300 576 Climbing Kansas City Center
Mon 11:58:00 AM 37.7581 -99.1147 78° East 472 543 36,200 823 Climbing Kansas City Center
Mon 11:59:03 AM 37.7864 -98.9525 77° East 473 544 37,000 387 Climbing Kansas City Center
Mon 12:00:04 PM 37.8139 -98.7914 78° East 470 541 37,000  Level Kansas City Center
Mon 12:01:05 PM 37.8417 -98.6294 78° East 471 542 37,000  Level Kansas City Center
Mon 12:02:09 PM 37.8697 -98.4683 78° East 470 541 37,000  Level Kansas City Center
Mon 12:03:10 PM 37.9028 -98.2753 78° East 468 539 37,000  Level Kansas City Center
Mon 12:04:13 PM 37.9303 -98.1133 78° East 465 535 37,000  Level Kansas City Center
Mon 12:05:14 PM 37.9567 -97.9542 78° East 462 532 37,000  Level Kansas City Center
Mon 12:06:18 PM 37.9825 -97.7967 78° East 464 534 37,000  Level Kansas City Center
Mon 12:07:18 PM 38.0106 -97.6319 78° East 474 545 37,000  Level Kansas City Center
Mon 12:08:22 PM 38.0392 -97.4536 78° East 471 542 37,000  Level Kansas City Center
Mon 12:09:22 PM 38.0650 -97.2906 79° East 471 542 37,000  Level Kansas City Center
Mon 12:10:24 PM 38.0911 -97.1289 78° East 468 539 37,000  Level Kansas City Center
Mon 12:11:28 PM 38.1169 -96.9661 79° East 470 541 37,000  Level Kansas City Center
Mon 12:12:29 PM 38.1486 -96.7697 78° East 474 545 37,000  Level Kansas City Center
Mon 12:13:30 PM 38.1739 -96.6044 79° East 476 548 37,000  Level Kansas City Center
Mon 12:14:32 PM 38.1972 -96.4497 79° East 475 547 37,000  Level Kansas City Center
Mon 12:15:35 PM 38.2258 -96.2664 79° East 476 548 37,000  Level Kansas City Center
Mon 12:16:36 PM 38.2494 -96.1081 79° East 477 549 37,000  Level Kansas City Center
Mon 12:17:40 PM 38.2772 -95.9233 79° East 477 549 37,000  Level Kansas City Center
Mon 12:18:40 PM 38.3003 -95.7642 79° East 478 550 37,000  Level Kansas City Center
Mon 12:19:44 PM 38.3269 -95.5806 79° East 476 548 37,000  Level Kansas City Center
Mon 12:20:46 PM 38.3500 -95.4211 80° East 478 550 37,000  Level Kansas City Center
Mon 12:21:46 PM 38.3772 -95.2353 79° East 480 552 37,000  Level Kansas City Center
Mon 12:22:50 PM 38.3997 -95.0750 80° East 481 554 37,000  Level Kansas City Center
Mon 12:23:52 PM 38.4261 -94.8867 80° East 485 558 37,000  Level Kansas City Center
Mon 12:24:52 PM 38.4478 -94.7250 80° East 484 557 37,000  Level Kansas City Center
Mon 12:25:56 PM 38.4747 -94.5353 80° East 487 560 37,000  Level Kansas City Center
Mon 12:26:57 PM 38.4967 -94.3728 80° East 488 562 37,000  Level Kansas City Center
Mon 12:28:00 PM 38.5219 -94.1839 80° East 486 559 37,000  Level Kansas City Center
Mon 12:29:02 PM 38.5425 -94.0228 81° East 484 557 37,000  Level Kansas City Center
Mon 12:30:02 PM 38.5672 -93.8339 80° East 484 557 37,000  Level Kansas City Center
Mon 12:31:07 PM 38.5886 -93.6728 80° East 482 555 37,000  Level Kansas City Center
Mon 12:32:07 PM 38.6103 -93.5019 81° East 484 557 37,000  Level Kansas City Center
Mon 12:33:08 PM 38.6336 -93.3306 80° East 486 559 37,000  Level Kansas City Center
Mon 12:34:13 PM 38.6586 -93.1236 81° East 488 562 37,000  Level Kansas City Center
Mon 12:35:15 PM 38.6797 -92.9528 81° East 486 559 37,000  Level Kansas City Center
Mon 12:36:15 PM 38.6997 -92.7808 81° East 486 559 37,000  Level Kansas City Center
Mon 12:37:19 PM 38.7208 -92.6092 81° East 486 559 37,000  Level Kansas City Center
Mon 12:38:20 PM 38.7408 -92.4375 81° East 486 559 37,000  Level Kansas City Center
Mon 12:39:21 PM 38.7608 -92.2642 82° East 487 560 37,000  Level Kansas City Center
Mon 12:40:24 PM 38.7797 -92.0911 82° East 487 560 37,000  Level Kansas City Center
Mon 12:41:27 PM 38.7994 -91.9192 82° East 486 559 37,000  Level Kansas City Center
Mon 12:42:28 PM 38.8228 -91.7128 82° East 485 558 37,000  Level Kansas City Center
Mon 12:43:30 PM 38.8381 -91.5739 82° East 486 559 37,000  Level Kansas City Center
Mon 12:44:31 PM 38.8611 -91.3694 82° East 485 558 37,000  Level Kansas City Center
Mon 12:45:34 PM 38.8792 -91.1994 82° East 483 556 37,000  Level Kansas City Center
Mon 12:46:35 PM 38.8969 -91.0300 82° East 481 554 37,000  Level Kansas City Center
Mon 12:47:38 PM 38.9142 -90.8617 82° East 479 551 37,000  Level Kansas City Center
Mon 12:48:39 PM 38.9328 -90.6922 82° East 477 549 37,000  Level Kansas City Center
Mon 12:49:43 PM 38.9500 -90.5219 83° East 476 548 37,000  Level Kansas City Center
Mon 12:50:43 PM 38.9667 -90.3489 83° East 480 552 37,000  Level Kansas City Center
Mon 12:51:47 PM 38.9869 -90.1433 83° East 479 551 37,000  Level Kansas City Center
Mon 12:52:47 PM 39.0042 -89.9733 83° East 477 549 37,000  Level Kansas City Center
Mon 12:53:51 PM 39.0300 -89.7956 79° East 471 542 37,000  Level Kansas City Center
Mon 12:54:51 PM 39.0533 -89.6303 80° East 471 542 37,000  Level Kansas City Center
Mon 12:55:55 PM 39.0775 -89.4525 80° East 470 541 37,000  Level Kansas City Center
Mon 12:56:56 PM 39.0997 -89.2875 80° East 470 541 37,000  Level Kansas City Center
Mon 12:57:57 PM 39.1217 -89.1206 80° East 474 545 37,000  Level Kansas City Center
Mon 12:59:01 PM 39.1456 -88.9436 80° East 475 547 37,000  Level Kansas City Center
Mon 01:00:03 PM 39.1711 -88.7761 79° East 478 550 37,000  Level Kansas City Center
Mon 01:01:07 PM 39.1939 -88.5933 81° East 475 547 37,000  Level Kansas City Center
Mon 01:02:08 PM 39.2369 -88.4328 71° East 471 542 37,000  Level Kansas City Center
Mon 01:03:12 PM 39.2933 -88.2814 64° Northeast 467 537 37,000  Level Kansas City Center
Mon 01:04:13 PM 39.3492 -88.1286 65° Northeast 467 537 37,000  Level Kansas City Center
Mon 01:05:16 PM 39.4097 -87.9653 64° Northeast 468 539 37,000  Level Indianapolis Center
Mon 01:06:18 PM 39.4653 -87.8136 65° Northeast 468 539 37,000  Level Indianapolis Center
Mon 01:07:20 PM 39.5219 -87.6603 64° Northeast 470 541 37,000  Level Indianapolis Center
Mon 01:08:22 PM 39.5783 -87.5086 64° Northeast 471 542 37,000  Level Indianapolis Center
Mon 01:09:23 PM 39.6450 -87.3242 65° Northeast 472 543 37,000  Level Indianapolis Center
Mon 01:10:25 PM 39.7000 -87.1711 65° Northeast 469 540 37,000  Level Indianapolis Center
Mon 01:11:39 PM 39.7669 -86.9869 65° Northeast 472 543 37,000  Level Indianapolis Center
Mon 01:12:42 PM 39.8219 -86.8344 65° Northeast 468 539 37,000  Level Indianapolis Center
Mon 01:13:43 PM 39.8761 -86.6803 65° Northeast 467 537 37,000  Level Indianapolis Center
Mon 01:14:45 PM 39.9314 -86.5286 65° Northeast 461 531 37,000  Level Indianapolis Center
Mon 01:15:47 PM 39.9847 -86.3739 66° East 462 532 37,000  Level Indianapolis Center
Mon 01:16:48 PM 40.0497 -86.1881 65° Northeast 465 535 37,000  Level Indianapolis Center
Mon 01:17:50 PM 40.1042 -86.0342 65° Northeast 465 535 37,000  Level Indianapolis Center
Mon 01:18:53 PM 40.1578 -85.8792 66° East 466 536 37,000  Level Chicago Center
Mon 01:19:55 PM 40.2122 -85.7267 65° Northeast 466 536 37,000  Level Chicago Center
Mon 01:20:56 PM 40.2614 -85.5722 67° East 462 532 37,000  Level Indianapolis Center
Mon 01:21:58 PM 40.3142 -85.4197 66° East 461 531 37,000  Level Indianapolis Center
Mon 01:23:00 PM 40.3631 -85.2714 67° East 448 516 37,000  Level Indianapolis Center
Mon 01:24:02 PM 40.3703 -85.0756 87° East 450 518 37,000  Level Indianapolis Center
Mon 01:25:03 PM 40.3744 -84.9136 88° East 447 514 37,000  Level Indianapolis Center
Mon 01:26:05 PM 40.3769 -84.7397 89° East 450 518 37,000  Level Indianapolis Center
Mon 01:27:07 PM 40.3794 -84.5753 89° East 448 516 37,000  Level Indianapolis Center
Mon 01:28:09 PM 40.3819 -84.4097 89° East 451 519 37,000  Level Indianapolis Center
Mon 01:29:11 PM 40.3856 -84.2439 88° East 450 518 37,000  Level Indianapolis Center
Mon 01:30:12 PM 40.3889 -84.0764 88° East 453 521 37,000  Level Indianapolis Center
Mon 01:31:14 PM 40.4386 -83.9311 66° East 441 507 37,000  Level Indianapolis Center
Mon 01:32:16 PM 40.5100 -83.7992 55° Northeast 438 504 37,000  Level Indianapolis Center
Mon 01:33:18 PM 40.5797 -83.6667 55° Northeast 438 504 37,000  Level Indianapolis Center
Mon 01:34:19 PM 40.6506 -83.5347 55° Northeast 438 504 37,000  Level Indianapolis Center
Mon 01:35:21 PM 40.7303 -83.3786 56° Northeast 436 502 37,000  Level Indianapolis Center
Mon 01:36:22 PM 40.8106 -83.2647 47° Northeast 432 497 37,000  Level Indianapolis Center
Mon 01:37:06 PM 40.8856 -83.1978 34° Northeast 417 480 37,000  Level Cleveland Center
Mon 01:38:06 PM 40.9792 -83.1108 35° Northeast 422 486 37,000  Level Cleveland Center
Mon 01:39:06 PM 41.0731 -83.0125 38° Northeast 422 486 37,000  Level Cleveland Center
Mon 01:40:06 PM 41.1586 -82.9081 43° Northeast 422 486 37,000  Level Cleveland Center
Mon 01:41:06 PM 41.2097 -82.7581 66° East 417 480 37,000  Level Cleveland Center
Mon 01:42:06 PM 41.2519 -82.6075 69° East 425 489 37,000  Level Cleveland Center
Mon 01:43:06 PM 41.2964 -82.4569 69° East 443 510 37,000  Level Cleveland Center
Mon 01:44:06 PM 41.3383 -82.3006 70° East 443 510 37,000  Level Cleveland Center
Mon 01:45:06 PM 41.3800 -82.1606 68° East 443 510 37,000  Level Cleveland Center
Mon 01:46:06 PM 41.4236 -82.0036 70° East 443 510 37,000  Level Cleveland Center
Mon 01:47:06 PM 41.4714 -81.8469 68° East 443 510 37,000  Level Cleveland Center
Mon 01:48:06 PM 41.5169 -81.6703 71° East 449 517 37,000  Level Cleveland Center
Mon 01:49:06 PM 41.5622 -81.5100 69° East 454 522 37,000  Level Cleveland Center
Mon 01:50:06 PM 41.6050 -81.3494 70° East 459 528 37,000  Level Cleveland Center
Mon 01:51:06 PM 41.6500 -81.1861 70° East 459 528 37,000  Level Cleveland Center
Mon 01:52:06 PM 41.6944 -81.0225 70° East 459 528 37,000  Level Cleveland Center
Mon 01:53:06 PM 41.7386 -80.8586 70° East 466 536 37,000  Level Cleveland Center
Mon 01:54:06 PM 41.7806 -80.6944 71° East 459 528 37,000  Level Cleveland Center
Mon 01:55:06 PM 41.8203 -80.5469 70° East 465 535 37,000  Level Cleveland Center
Mon 01:56:06 PM 41.8661 -80.3797 70° East 470 541 37,000  Level Cleveland Center
Mon 01:57:06 PM 41.9094 -80.2150 70° East 470 541 37,000  Level Cleveland Center
Mon 01:58:06 PM 41.9544 -80.0472 70° East 470 541 37,000  Level Cleveland Center
Mon 01:59:06 PM 42.0014 -79.8650 71° East 470 541 37,000  Level Cleveland Center
Mon 02:00:06 PM 42.0461 -79.6939 71° East 470 541 37,000  Level Cleveland Center
Mon 02:01:06 PM 42.0886 -79.5256 71° East 470 541 37,000  Level Cleveland Center
Mon 02:02:06 PM 42.1200 -79.3486 76° East 470 541 37,000  Level Cleveland Center
Mon 02:03:06 PM 42.0994 -79.1728 99° East 464 534 37,000  Level Cleveland Center
Mon 02:04:06 PM 42.0678 -78.9972 104° East 469 540 37,000  Level Cleveland Center
Mon 02:05:06 PM 42.0383 -78.8219 103° East 475 547 37,000 -150 Level Cleveland Center
Mon 02:06:06 PM 42.0064 -78.6494 104° East 480 552 36,700 -606 Descending Cleveland Center
Mon 02:08:24 PM 41.9378 -78.2519 103° East 494 568 35,000 -515 Descending New York Center
Mon 02:09:24 PM 41.9031 -78.0722 104° East 494 568 35,000  Level New York Center
Mon 02:10:24 PM 41.8700 -77.8958 104° East 494 568 35,000  Level New York Center
Mon 02:11:24 PM 41.8286 -77.7189 107° East 489 563 35,000  Level New York Center
Mon 02:12:24 PM 41.7822 -77.5444 110° East 489 563 35,000  Level New York Center
Mon 02:13:24 PM 41.7361 -77.3672 109° East 494 568 35,000  Level New York Center
Mon 02:14:24 PM 41.6822 -77.1703 110° East 508 585 35,000  Level New York Center
Mon 02:15:24 PM 41.6353 -76.9936 110° East 508 585 35,000  Level New York Center
Mon 02:16:24 PM 41.5883 -76.8172 110° East 508 585 35,000  Level New York Center
Mon 02:17:24 PM 41.5442 -76.6608 111° Southeast 502 578 35,000  Level New York Center
Mon 02:18:24 PM 41.4964 -76.4850 110° East 502 578 35,000 -100 Level New York Center
Mon 02:19:24 PM 41.4453 -76.2867 109° East 502 578 34,800 -600 Descending New York Center
Mon 02:20:24 PM 41.3914 -76.0997 111° Southeast 521 600 33,800 -1,900 Descending New York Center
Mon 02:21:24 PM 41.3406 -75.9328 112° Southeast 512 589 31,000 -2,600 Descending New York Center
Mon 02:22:24 PM 41.2917 -75.7578 110° East 502 578 28,600 -2,250 Descending New York Center
Mon 02:23:24 PM 41.2403 -75.5911 112° Southeast 502 578 26,500 -2,150 Descending New York Center
Mon 02:24:24 PM 41.1861 -75.4358 115° Southeast 482 555 24,300 -1,750 Descending New York Center
Mon 02:25:24 PM 41.1358 -75.2836 114° Southeast 461 531 23,000 -950 Descending New York Center
Mon 02:26:24 PM 41.0872 -75.1372 114° Southeast 447 514 22,400 -800 Descending New York Center
Mon 02:27:24 PM 41.0381 -74.9936 114° Southeast 436 502 21,400 -800 Descending New York Center
Mon 02:28:24 PM 40.9969 -74.8619 112° Southeast 425 489 20,800 -800 Descending New York Center
Mon 02:29:24 PM 40.9792 -74.7097 99° East 408 470 19,800 -900 Descending New York Center
Mon 02:30:24 PM 40.9617 -74.5467 98° East 413 475 19,000 -400 Descending New York Center
Mon 02:31:24 PM 40.9472 -74.4139 98° East 413 475 19,000  Level New York Center
Mon 02:32:24 PM 40.9292 -74.2508 98° East 413 475 19,000  Level New York Center
Mon 02:33:24 PM 40.9036 -74.1206 105° East 384 442 19,000 -550 Level New York Center
Mon 02:34:24 PM 40.8300 -74.0703 153° Southeast 322 371 17,900 -1,300 Descending New York Center
Mon 02:35:24 PM 40.7356 -74.0300 162° South 316 364 16,400 -1,500 Descending New York Center
Mon 02:36:24 PM 40.6531 -73.9961 163° South 316 364 14,900 -1,466 Descending New York Center
Mon 02:37:35 PM 40.5500 -73.9500 161° South 317 365 13,200 -1,099 Descending New York TRACON
Mon 02:38:35 PM 40.4667 -73.9167 163° South 302 348 12,500 -1,200 Descending New York TRACON
Mon 02:39:35 PM 40.3833 -73.9000 171° South 299 344 10,800 -1,750 Descending New York TRACON
Mon 02:40:35 PM 40.3500 -73.8000 114° Southeast 307 353 9,000 -1,700 Descending New York TRACON
Mon 02:41:35 PM 40.3500 -73.7000 90° East 307 353 7,400 -1,700 Descending New York TRACON
Mon 02:42:35 PM 40.4167 -73.6500 30° Northeast 253 291 5,600 -2,150 Descending New York TRACON
Mon 02:43:35 PM 40.4833 -73.6500 360° North 244 281 3,100 -1,850 Descending New York TRACON
Mon 02:44:35 PM 40.5333 -73.6667 346° North 224 258 1,900 -700 Descending New York TRACON
Mon 02:45:35 PM 40.5833 -73.6833 346° North 158 182 1,700 -474 Descending New York TRACON
Mon 02:46:29 PM 40.6000 -73.7167 303° West 150 173 1,000 -778 Descending New York TRACON

Login

Don't have an account? Register now (free) for customized features, flight alerts, and more!